sensor_id;sensor_type;location;lat;lon;timestamp;P1;durP1;ratioP1;P2;durP2;ratioP2
64686;SDS011;51113;53.646;-113.674;2023-08-08T00:00:38;16.85;;;9.40;;
64686;SDS011;51113;53.646;-113.674;2023-08-08T00:03:07;15.20;;;9.00;;
64686;SDS011;51113;53.646;-113.674;2023-08-08T00:05:36;18.05;;;8.95;;
64686;SDS011;51113;53.646;-113.674;2023-08-08T00:08:05;19.60;;;9.15;;
64686;SDS011;51113;53.646;-113.674;2023-08-08T00:10:34;18.02;;;9.00;;
64686;SDS011;51113;53.646;-113.674;2023-08-08T00:13:03;16.58;;;9.48;;
64686;SDS011;51113;53.646;-113.674;2023-08-08T00:15:32;19.08;;;9.40;;
64686;SDS011;51113;53.646;-113.674;2023-08-08T00:18:00;20.25;;;9.93;;
64686;SDS011;51113;53.646;-113.674;2023-08-08T00:20:28;21.73;;;9.93;;
64686;SDS011;51113;53.646;-113.674;2023-08-08T00:22:57;26.58;;;9.93;;
64686;SDS011;51113;53.646;-113.674;2023-08-08T00:25:26;23.10;;;10.15;;
64686;SDS011;51113;53.646;-113.674;2023-08-08T00:27:55;22.20;;;10.50;;
64686;SDS011;51113;53.646;-113.674;2023-08-08T00:30:23;17.70;;;9.40;;
64686;SDS011;51113;53.646;-113.674;2023-08-08T00:32:52;29.40;;;10.88;;
64686;SDS011;51113;53.646;-113.674;2023-08-08T00:35:21;16.70;;;9.77;;
64686;SDS011;51113;53.646;-113.674;2023-08-08T00:37:49;23.52;;;9.68;;
64686;SDS011;51113;53.646;-113.674;2023-08-08T00:40:18;22.48;;;9.63;;
64686;SDS011;51113;53.646;-113.674;2023-08-08T00:42:46;18.50;;;10.65;;
64686;SDS011;51113;53.646;-113.674;2023-08-08T00:45:15;16.42;;;9.43;;
64686;SDS011;51113;53.646;-113.674;2023-08-08T00:47:44;21.60;;;10.20;;
64686;SDS011;51113;53.646;-113.674;2023-08-08T00:50:13;28.67;;;10.57;;
64686;SDS011;51113;53.646;-113.674;2023-08-08T00:52:42;17.98;;;9.70;;
64686;SDS011;51113;53.646;-113.674;2023-08-08T00:55:12;18.33;;;11.63;;
64686;SDS011;51113;53.646;-113.674;2023-08-08T00:57:42;21.10;;;11.18;;
64686;SDS011;51113;53.646;-113.674;2023-08-08T01:00:11;19.25;;;11.05;;
64686;SDS011;51113;53.646;-113.674;2023-08-08T01:02:39;18.05;;;10.70;;
64686;SDS011;51113;53.646;-113.674;2023-08-08T01:05:08;21.80;;;11.20;;
64686;SDS011;51113;53.646;-113.674;2023-08-08T01:10:28;18.83;;;10.57;;
64686;SDS011;51113;53.646;-113.674;2023-08-08T01:13:05;19.52;;;10.80;;
64686;SDS011;51113;53.646;-113.674;2023-08-08T01:15:38;22.55;;;10.35;;
64686;SDS011;51113;53.646;-113.674;2023-08-08T01:18:08;19.63;;;10.20;;
64686;SDS011;51113;53.646;-113.674;2023-08-08T01:20:38;19.00;;;10.50;;
64686;SDS011;51113;53.646;-113.674;2023-08-08T01:23:09;27.95;;;10.95;;
64686;SDS011;51113;53.646;-113.674;2023-08-08T01:25:42;21.30;;;9.95;;
64686;SDS011;51113;53.646;-113.674;2023-08-08T01:28:11;22.35;;;11.15;;
64686;SDS011;51113;53.646;-113.674;2023-08-08T01:30:40;19.65;;;10.60;;
64686;SDS011;51113;53.646;-113.674;2023-08-08T01:33:10;24.73;;;11.13;;
64686;SDS011;51113;53.646;-113.674;2023-08-08T01:35:38;19.30;;;10.00;;
64686;SDS011;51113;53.646;-113.674;2023-08-08T01:38:31;24.40;;;11.32;;
64686;SDS011;51113;53.646;-113.674;2023-08-08T01:41:05;26.95;;;11.27;;
64686;SDS011;51113;53.646;-113.674;2023-08-08T01:43:37;21.55;;;11.95;;
64686;SDS011;51113;53.646;-113.674;2023-08-08T01:46:06;18.10;;;11.32;;
64686;SDS011;51113;53.646;-113.674;2023-08-08T01:48:36;19.73;;;10.88;;
64686;SDS011;51113;53.646;-113.674;2023-08-08T01:51:05;18.95;;;10.30;;
64686;SDS011;51113;53.646;-113.674;2023-08-08T01:53:33;22.73;;;10.90;;
64686;SDS011;51113;53.646;-113.674;2023-08-08T01:56:02;22.27;;;10.73;;
64686;SDS011;51113;53.646;-113.674;2023-08-08T01:58:31;24.63;;;11.52;;
64686;SDS011;51113;53.646;-113.674;2023-08-08T02:00:59;22.77;;;10.52;;
64686;SDS011;51113;53.646;-113.674;2023-08-08T02:03:28;20.88;;;10.82;;
64686;SDS011;51113;53.646;-113.674;2023-08-08T02:05:57;18.77;;;10.85;;
64686;SDS011;51113;53.646;-113.674;2023-08-08T02:08:25;21.50;;;11.18;;
64686;SDS011;51113;53.646;-113.674;2023-08-08T02:10:54;17.20;;;10.07;;
64686;SDS011;51113;53.646;-113.674;2023-08-08T02:13:23;18.05;;;10.82;;
64686;SDS011;51113;53.646;-113.674;2023-08-08T02:15:51;19.55;;;10.30;;
64686;SDS011;51113;53.646;-113.674;2023-08-08T02:18:20;20.55;;;10.60;;
64686;SDS011;51113;53.646;-113.674;2023-08-08T02:20:49;19.13;;;10.48;;
64686;SDS011;51113;53.646;-113.674;2023-08-08T02:23:18;17.35;;;10.43;;
64686;SDS011;51113;53.646;-113.674;2023-08-08T02:25:47;16.85;;;10.68;;
64686;SDS011;51113;53.646;-113.674;2023-08-08T02:28:19;23.42;;;11.90;;
64686;SDS011;51113;53.646;-113.674;2023-08-08T02:30:47;21.50;;;10.98;;
64686;SDS011;51113;53.646;-113.674;2023-08-08T02:33:16;17.80;;;10.27;;
64686;SDS011;51113;53.646;-113.674;2023-08-08T02:35:45;18.65;;;11.38;;
64686;SDS011;51113;53.646;-113.674;2023-08-08T02:38:13;17.48;;;10.93;;
64686;SDS011;51113;53.646;-113.674;2023-08-08T02:40:42;21.17;;;11.30;;
64686;SDS011;51113;53.646;-113.674;2023-08-08T02:43:10;21.10;;;11.18;;
64686;SDS011;51113;53.646;-113.674;2023-08-08T02:45:40;20.67;;;11.00;;
64686;SDS011;51113;53.646;-113.674;2023-08-08T02:48:08;21.27;;;11.52;;
64686;SDS011;51113;53.646;-113.674;2023-08-08T02:50:37;19.38;;;11.48;;
64686;SDS011;51113;53.646;-113.674;2023-08-08T02:53:06;17.17;;;10.45;;
64686;SDS011;51113;53.646;-113.674;2023-08-08T02:55:35;20.15;;;10.57;;
64686;SDS011;51113;53.646;-113.674;2023-08-08T02:58:04;22.45;;;10.75;;
64686;SDS011;51113;53.646;-113.674;2023-08-08T03:00:33;15.70;;;9.38;;
64686;SDS011;51113;53.646;-113.674;2023-08-08T03:03:02;16.48;;;10.32;;
64686;SDS011;51113;53.646;-113.674;2023-08-08T03:05:31;20.55;;;10.15;;
64686;SDS011;51113;53.646;-113.674;2023-08-08T03:07:59;21.58;;;11.02;;
64686;SDS011;51113;53.646;-113.674;2023-08-08T03:10:28;16.95;;;10.07;;
64686;SDS011;51113;53.646;-113.674;2023-08-08T03:12:56;18.30;;;10.30;;
64686;SDS011;51113;53.646;-113.674;2023-08-08T03:15:25;22.42;;;11.73;;
64686;SDS011;51113;53.646;-113.674;2023-08-08T03:17:53;16.27;;;10.25;;
64686;SDS011;51113;53.646;-113.674;2023-08-08T03:20:23;19.70;;;11.00;;
64686;SDS011;51113;53.646;-113.674;2023-08-08T03:22:52;20.38;;;10.75;;
64686;SDS011;51113;53.646;-113.674;2023-08-08T03:25:21;22.65;;;11.15;;
64686;SDS011;51113;53.646;-113.674;2023-08-08T03:27:49;19.55;;;11.15;;
64686;SDS011;51113;53.646;-113.674;2023-08-08T03:30:18;22.48;;;11.70;;
64686;SDS011;51113;53.646;-113.674;2023-08-08T03:32:46;23.15;;;11.25;;
64686;SDS011;51113;53.646;-113.674;2023-08-08T03:35:15;17.98;;;11.02;;
64686;SDS011;51113;53.646;-113.674;2023-08-08T03:37:43;20.48;;;11.30;;
64686;SDS011;51113;53.646;-113.674;2023-08-08T03:40:12;21.25;;;10.85;;
64686;SDS011;51113;53.646;-113.674;2023-08-08T03:42:44;20.90;;;11.70;;
64686;SDS011;51113;53.646;-113.674;2023-08-08T03:45:12;18.02;;;11.63;;
64686;SDS011;51113;53.646;-113.674;2023-08-08T03:47:41;20.83;;;11.98;;
64686;SDS011;51113;53.646;-113.674;2023-08-08T03:50:10;25.80;;;11.15;;
64686;SDS011;51113;53.646;-113.674;2023-08-08T03:52:39;23.40;;;12.77;;
64686;SDS011;51113;53.646;-113.674;2023-08-08T03:55:08;22.58;;;12.13;;
64686;SDS011;51113;53.646;-113.674;2023-08-08T03:57:37;23.13;;;12.13;;
64686;SDS011;51113;53.646;-113.674;2023-08-08T04:00:06;19.27;;;11.75;;
64686;SDS011;51113;53.646;-113.674;2023-08-08T04:02:39;24.58;;;12.13;;
64686;SDS011;51113;53.646;-113.674;2023-08-08T04:05:08;24.35;;;12.60;;
64686;SDS011;51113;53.646;-113.674;2023-08-08T04:07:36;20.50;;;12.52;;
64686;SDS011;51113;53.646;-113.674;2023-08-08T04:10:05;24.20;;;12.85;;
64686;SDS011;51113;53.646;-113.674;2023-08-08T04:12:34;22.30;;;13.30;;
64686;SDS011;51113;53.646;-113.674;2023-08-08T04:15:03;24.15;;;13.80;;
64686;SDS011;51113;53.646;-113.674;2023-08-08T04:17:32;32.63;;;14.10;;
64686;SDS011;51113;53.646;-113.674;2023-08-08T04:20:01;26.42;;;13.98;;
64686;SDS011;51113;53.646;-113.674;2023-08-08T04:22:30;30.00;;;15.25;;
64686;SDS011;51113;53.646;-113.674;2023-08-08T04:24:59;30.83;;;14.77;;
64686;SDS011;51113;53.646;-113.674;2023-08-08T04:27:28;25.67;;;15.05;;
64686;SDS011;51113;53.646;-113.674;2023-08-08T04:29:56;25.25;;;15.50;;
64686;SDS011;51113;53.646;-113.674;2023-08-08T04:32:25;27.63;;;15.20;;
64686;SDS011;51113;53.646;-113.674;2023-08-08T04:34:54;26.10;;;15.57;;
64686;SDS011;51113;53.646;-113.674;2023-08-08T04:37:22;29.88;;;16.13;;
64686;SDS011;51113;53.646;-113.674;2023-08-08T04:39:51;32.47;;;16.15;;
64686;SDS011;51113;53.646;-113.674;2023-08-08T04:42:20;29.92;;;15.85;;
64686;SDS011;51113;53.646;-113.674;2023-08-08T04:44:48;33.28;;;17.15;;
64686;SDS011;51113;53.646;-113.674;2023-08-08T04:47:17;35.35;;;17.25;;
64686;SDS011;51113;53.646;-113.674;2023-08-08T04:49:46;32.03;;;17.17;;
64686;SDS011;51113;53.646;-113.674;2023-08-08T04:52:14;34.33;;;17.38;;
64686;SDS011;51113;53.646;-113.674;2023-08-08T04:54:43;34.60;;;18.00;;
64686;SDS011;51113;53.646;-113.674;2023-08-08T04:57:12;34.15;;;17.63;;
64686;SDS011;51113;53.646;-113.674;2023-08-08T04:59:40;32.38;;;17.63;;
64686;SDS011;51113;53.646;-113.674;2023-08-08T05:02:10;35.00;;;17.73;;
64686;SDS011;51113;53.646;-113.674;2023-08-08T05:04:38;32.67;;;17.30;;
64686;SDS011;51113;53.646;-113.674;2023-08-08T05:07:07;31.15;;;17.33;;
64686;SDS011;51113;53.646;-113.674;2023-08-08T05:09:36;33.08;;;17.67;;
64686;SDS011;51113;53.646;-113.674;2023-08-08T05:12:04;33.17;;;19.00;;
64686;SDS011;51113;53.646;-113.674;2023-08-08T05:14:33;34.38;;;19.35;;
64686;SDS011;51113;53.646;-113.674;2023-08-08T05:17:02;32.00;;;18.70;;
64686;SDS011;51113;53.646;-113.674;2023-08-08T05:19:31;37.03;;;19.73;;
64686;SDS011;51113;53.646;-113.674;2023-08-08T05:21:59;40.40;;;19.52;;
64686;SDS011;51113;53.646;-113.674;2023-08-08T05:24:28;34.28;;;18.58;;
64686;SDS011;51113;53.646;-113.674;2023-08-08T05:26:57;33.42;;;18.58;;
64686;SDS011;51113;53.646;-113.674;2023-08-08T05:29:25;33.53;;;19.30;;
64686;SDS011;51113;53.646;-113.674;2023-08-08T05:31:54;31.73;;;18.15;;
64686;SDS011;51113;53.646;-113.674;2023-08-08T05:34:23;39.45;;;20.60;;
64686;SDS011;51113;53.646;-113.674;2023-08-08T05:36:52;38.55;;;19.35;;
64686;SDS011;51113;53.646;-113.674;2023-08-08T05:39:41;39.63;;;19.73;;
64686;SDS011;51113;53.646;-113.674;2023-08-08T05:42:09;41.75;;;20.73;;
64686;SDS011;51113;53.646;-113.674;2023-08-08T05:44:38;43.42;;;21.73;;
64686;SDS011;51113;53.646;-113.674;2023-08-08T05:47:09;52.50;;;21.77;;
64686;SDS011;51113;53.646;-113.674;2023-08-08T05:49:38;64.20;;;22.92;;
64686;SDS011;51113;53.646;-113.674;2023-08-08T05:52:10;43.67;;;22.15;;
64686;SDS011;51113;53.646;-113.674;2023-08-08T05:54:38;36.15;;;20.88;;
64686;SDS011;51113;53.646;-113.674;2023-08-08T05:57:07;40.05;;;21.25;;
64686;SDS011;51113;53.646;-113.674;2023-08-08T05:59:36;38.03;;;21.02;;
64686;SDS011;51113;53.646;-113.674;2023-08-08T06:02:04;44.00;;;20.52;;
64686;SDS011;51113;53.646;-113.674;2023-08-08T06:04:33;42.15;;;21.25;;
64686;SDS011;51113;53.646;-113.674;2023-08-08T06:07:02;34.95;;;21.40;;
64686;SDS011;51113;53.646;-113.674;2023-08-08T06:09:34;43.05;;;22.05;;
64686;SDS011;51113;53.646;-113.674;2023-08-08T06:12:04;42.67;;;22.42;;
64686;SDS011;51113;53.646;-113.674;2023-08-08T06:14:33;37.67;;;21.88;;
64686;SDS011;51113;53.646;-113.674;2023-08-08T06:17:02;40.17;;;23.02;;
64686;SDS011;51113;53.646;-113.674;2023-08-08T06:19:31;39.40;;;22.73;;
64686;SDS011;51113;53.646;-113.674;2023-08-08T06:21:59;37.60;;;21.73;;
64686;SDS011;51113;53.646;-113.674;2023-08-08T06:24:28;36.10;;;21.98;;
64686;SDS011;51113;53.646;-113.674;2023-08-08T06:26:57;39.45;;;22.38;;
64686;SDS011;51113;53.646;-113.674;2023-08-08T06:29:26;37.35;;;21.50;;
64686;SDS011;51113;53.646;-113.674;2023-08-08T06:31:55;37.30;;;22.15;;
64686;SDS011;51113;53.646;-113.674;2023-08-08T06:34:24;40.67;;;21.92;;
64686;SDS011;51113;53.646;-113.674;2023-08-08T06:36:53;44.63;;;23.08;;
64686;SDS011;51113;53.646;-113.674;2023-08-08T06:39:21;41.10;;;22.17;;
64686;SDS011;51113;53.646;-113.674;2023-08-08T06:41:50;37.88;;;21.95;;
64686;SDS011;51113;53.646;-113.674;2023-08-08T06:44:19;40.45;;;22.35;;
64686;SDS011;51113;53.646;-113.674;2023-08-08T06:46:47;39.60;;;21.90;;
64686;SDS011;51113;53.646;-113.674;2023-08-08T06:49:16;36.25;;;22.42;;
64686;SDS011;51113;53.646;-113.674;2023-08-08T06:51:45;37.38;;;21.58;;
64686;SDS011;51113;53.646;-113.674;2023-08-08T06:54:13;45.55;;;23.75;;
64686;SDS011;51113;53.646;-113.674;2023-08-08T06:56:42;40.65;;;22.17;;
64686;SDS011;51113;53.646;-113.674;2023-08-08T06:59:11;37.20;;;21.58;;
64686;SDS011;51113;53.646;-113.674;2023-08-08T07:01:39;39.50;;;21.80;;
64686;SDS011;51113;53.646;-113.674;2023-08-08T07:04:08;39.63;;;22.13;;
64686;SDS011;51113;53.646;-113.674;2023-08-08T07:06:37;41.15;;;21.42;;
64686;SDS011;51113;53.646;-113.674;2023-08-08T07:09:05;40.15;;;21.50;;
64686;SDS011;51113;53.646;-113.674;2023-08-08T07:11:38;37.63;;;20.83;;
64686;SDS011;51113;53.646;-113.674;2023-08-08T07:14:06;37.28;;;21.77;;
64686;SDS011;51113;53.646;-113.674;2023-08-08T07:16:35;39.05;;;21.58;;
64686;SDS011;51113;53.646;-113.674;2023-08-08T07:19:04;37.40;;;21.90;;
64686;SDS011;51113;53.646;-113.674;2023-08-08T07:21:33;36.10;;;22.45;;
64686;SDS011;51113;53.646;-113.674;2023-08-08T07:24:02;41.38;;;23.23;;
64686;SDS011;51113;53.646;-113.674;2023-08-08T07:26:31;37.58;;;23.15;;
64686;SDS011;51113;53.646;-113.674;2023-08-08T07:29:00;41.15;;;22.38;;
64686;SDS011;51113;53.646;-113.674;2023-08-08T07:31:28;45.35;;;23.17;;
64686;SDS011;51113;53.646;-113.674;2023-08-08T07:33:57;34.03;;;22.00;;
64686;SDS011;51113;53.646;-113.674;2023-08-08T07:36:25;43.05;;;23.98;;
64686;SDS011;51113;53.646;-113.674;2023-08-08T07:38:54;41.63;;;22.90;;
64686;SDS011;51113;53.646;-113.674;2023-08-08T07:41:29;37.35;;;21.55;;
64686;SDS011;51113;53.646;-113.674;2023-08-08T07:43:58;40.53;;;22.45;;
64686;SDS011;51113;53.646;-113.674;2023-08-08T07:46:26;43.28;;;21.35;;
64686;SDS011;51113;53.646;-113.674;2023-08-08T07:48:55;36.40;;;22.15;;
64686;SDS011;51113;53.646;-113.674;2023-08-08T07:51:26;40.67;;;23.27;;
64686;SDS011;51113;53.646;-113.674;2023-08-08T07:53:55;39.75;;;22.15;;
64686;SDS011;51113;53.646;-113.674;2023-08-08T07:56:24;40.85;;;22.40;;
64686;SDS011;51113;53.646;-113.674;2023-08-08T07:58:53;42.22;;;22.63;;
64686;SDS011;51113;53.646;-113.674;2023-08-08T08:01:22;42.03;;;23.90;;
64686;SDS011;51113;53.646;-113.674;2023-08-08T08:03:51;39.03;;;22.48;;
64686;SDS011;51113;53.646;-113.674;2023-08-08T08:06:19;41.30;;;22.25;;
64686;SDS011;51113;53.646;-113.674;2023-08-08T08:08:48;37.00;;;22.50;;
64686;SDS011;51113;53.646;-113.674;2023-08-08T08:11:16;41.30;;;22.88;;
64686;SDS011;51113;53.646;-113.674;2023-08-08T08:13:45;34.42;;;21.02;;
64686;SDS011;51113;53.646;-113.674;2023-08-08T08:16:14;41.88;;;22.55;;
64686;SDS011;51113;53.646;-113.674;2023-08-08T08:18:43;41.58;;;22.50;;
64686;SDS011;51113;53.646;-113.674;2023-08-08T08:21:11;35.88;;;22.33;;
64686;SDS011;51113;53.646;-113.674;2023-08-08T08:23:41;39.13;;;21.90;;
64686;SDS011;51113;53.646;-113.674;2023-08-08T08:26:10;41.00;;;22.50;;
64686;SDS011;51113;53.646;-113.674;2023-08-08T08:28:38;39.05;;;21.85;;
64686;SDS011;51113;53.646;-113.674;2023-08-08T08:31:08;38.55;;;22.50;;
64686;SDS011;51113;53.646;-113.674;2023-08-08T08:33:37;42.33;;;22.67;;
64686;SDS011;51113;53.646;-113.674;2023-08-08T08:36:05;43.10;;;22.25;;
64686;SDS011;51113;53.646;-113.674;2023-08-08T08:38:34;40.03;;;21.75;;
64686;SDS011;51113;53.646;-113.674;2023-08-08T08:41:03;38.83;;;21.98;;
64686;SDS011;51113;53.646;-113.674;2023-08-08T08:43:32;40.05;;;21.73;;
64686;SDS011;51113;53.646;-113.674;2023-08-08T08:46:00;40.90;;;22.23;;
64686;SDS011;51113;53.646;-113.674;2023-08-08T08:48:31;37.58;;;22.42;;
64686;SDS011;51113;53.646;-113.674;2023-08-08T08:51:00;39.42;;;21.77;;
64686;SDS011;51113;53.646;-113.674;2023-08-08T08:53:29;35.35;;;20.80;;
64686;SDS011;51113;53.646;-113.674;2023-08-08T08:55:58;44.70;;;21.85;;
64686;SDS011;51113;53.646;-113.674;2023-08-08T08:58:27;37.42;;;21.70;;
64686;SDS011;51113;53.646;-113.674;2023-08-08T09:00:56;40.03;;;21.55;;
64686;SDS011;51113;53.646;-113.674;2023-08-08T09:03:26;37.97;;;21.80;;
64686;SDS011;51113;53.646;-113.674;2023-08-08T09:05:55;33.92;;;21.65;;
64686;SDS011;51113;53.646;-113.674;2023-08-08T09:08:26;36.22;;;21.08;;
64686;SDS011;51113;53.646;-113.674;2023-08-08T09:10:55;35.90;;;21.58;;
64686;SDS011;51113;53.646;-113.674;2023-08-08T09:13:27;43.05;;;21.67;;
64686;SDS011;51113;53.646;-113.674;2023-08-08T09:16:02;33.97;;;22.08;;
64686;SDS011;51113;53.646;-113.674;2023-08-08T09:18:34;39.75;;;21.52;;
64686;SDS011;51113;53.646;-113.674;2023-08-08T09:21:06;43.72;;;21.30;;
64686;SDS011;51113;53.646;-113.674;2023-08-08T09:23:36;36.20;;;21.52;;
64686;SDS011;51113;53.646;-113.674;2023-08-08T09:26:08;40.95;;;22.00;;
64686;SDS011;51113;53.646;-113.674;2023-08-08T09:28:37;39.65;;;22.13;;
64686;SDS011;51113;53.646;-113.674;2023-08-08T09:31:06;38.53;;;21.58;;
64686;SDS011;51113;53.646;-113.674;2023-08-08T09:33:35;38.25;;;21.60;;
64686;SDS011;51113;53.646;-113.674;2023-08-08T09:36:06;34.97;;;21.55;;
64686;SDS011;51113;53.646;-113.674;2023-08-08T09:38:35;35.38;;;21.13;;
64686;SDS011;51113;53.646;-113.674;2023-08-08T09:41:04;36.08;;;21.85;;
64686;SDS011;51113;53.646;-113.674;2023-08-08T09:43:32;39.30;;;21.83;;
64686;SDS011;51113;53.646;-113.674;2023-08-08T09:46:01;38.30;;;21.80;;
64686;SDS011;51113;53.646;-113.674;2023-08-08T09:48:30;40.55;;;20.67;;
64686;SDS011;51113;53.646;-113.674;2023-08-08T09:51:01;41.40;;;22.58;;
64686;SDS011;51113;53.646;-113.674;2023-08-08T09:53:30;37.10;;;21.95;;
64686;SDS011;51113;53.646;-113.674;2023-08-08T09:56:00;41.00;;;21.98;;
64686;SDS011;51113;53.646;-113.674;2023-08-08T09:58:32;37.70;;;22.67;;
64686;SDS011;51113;53.646;-113.674;2023-08-08T10:01:01;42.78;;;22.15;;
64686;SDS011;51113;53.646;-113.674;2023-08-08T10:03:32;41.72;;;22.35;;
64686;SDS011;51113;53.646;-113.674;2023-08-08T10:06:02;38.17;;;22.23;;
64686;SDS011;51113;53.646;-113.674;2023-08-08T10:08:31;37.55;;;22.50;;
64686;SDS011;51113;53.646;-113.674;2023-08-08T10:11:00;35.17;;;21.50;;
64686;SDS011;51113;53.646;-113.674;2023-08-08T10:13:29;36.10;;;21.35;;
64686;SDS011;51113;53.646;-113.674;2023-08-08T10:15:58;39.28;;;21.65;;
64686;SDS011;51113;53.646;-113.674;2023-08-08T10:18:36;43.08;;;22.05;;
64686;SDS011;51113;53.646;-113.674;2023-08-08T10:21:05;38.40;;;21.50;;
64686;SDS011;51113;53.646;-113.674;2023-08-08T10:23:37;39.05;;;21.67;;
64686;SDS011;51113;53.646;-113.674;2023-08-08T10:28:57;35.58;;;21.00;;
64686;SDS011;51113;53.646;-113.674;2023-08-08T10:31:27;36.65;;;22.10;;
64686;SDS011;51113;53.646;-113.674;2023-08-08T10:34:03;46.50;;;22.38;;
64686;SDS011;51113;53.646;-113.674;2023-08-08T10:39:32;40.65;;;22.85;;
64686;SDS011;51113;53.646;-113.674;2023-08-08T10:42:03;37.50;;;22.17;;
64686;SDS011;51113;53.646;-113.674;2023-08-08T10:44:39;41.65;;;21.85;;
64686;SDS011;51113;53.646;-113.674;2023-08-08T10:47:10;37.67;;;21.27;;
64686;SDS011;51113;53.646;-113.674;2023-08-08T10:49:41;42.92;;;22.48;;
64686;SDS011;51113;53.646;-113.674;2023-08-08T10:52:13;39.42;;;22.17;;
64686;SDS011;51113;53.646;-113.674;2023-08-08T10:54:51;39.00;;;22.30;;
64686;SDS011;51113;53.646;-113.674;2023-08-08T10:57:24;37.55;;;20.63;;
64686;SDS011;51113;53.646;-113.674;2023-08-08T10:59:54;36.08;;;21.08;;
64686;SDS011;51113;53.646;-113.674;2023-08-08T11:02:23;33.28;;;20.95;;
64686;SDS011;51113;53.646;-113.674;2023-08-08T11:04:52;37.05;;;21.52;;
64686;SDS011;51113;53.646;-113.674;2023-08-08T11:07:27;37.95;;;21.25;;
64686;SDS011;51113;53.646;-113.674;2023-08-08T11:09:56;37.33;;;20.98;;
64686;SDS011;51113;53.646;-113.674;2023-08-08T11:12:25;37.53;;;20.33;;
64686;SDS011;51113;53.646;-113.674;2023-08-08T11:14:54;37.67;;;20.10;;
64686;SDS011;51113;53.646;-113.674;2023-08-08T11:17:23;37.28;;;20.77;;
64686;SDS011;51113;53.646;-113.674;2023-08-08T11:19:52;36.10;;;20.25;;
64686;SDS011;51113;53.646;-113.674;2023-08-08T11:22:21;35.13;;;19.65;;
64686;SDS011;51113;53.646;-113.674;2023-08-08T11:27:26;36.05;;;19.13;;
64686;SDS011;51113;53.646;-113.674;2023-08-08T11:29:57;37.00;;;20.45;;
64686;SDS011;51113;53.646;-113.674;2023-08-08T11:32:27;34.78;;;20.60;;
64686;SDS011;51113;53.646;-113.674;2023-08-08T11:34:56;36.28;;;19.52;;
64686;SDS011;51113;53.646;-113.674;2023-08-08T11:37:24;35.13;;;20.27;;
64686;SDS011;51113;53.646;-113.674;2023-08-08T11:39:53;39.97;;;21.88;;
64686;SDS011;51113;53.646;-113.674;2023-08-08T11:42:22;39.38;;;21.35;;
64686;SDS011;51113;53.646;-113.674;2023-08-08T11:44:51;35.83;;;20.65;;
64686;SDS011;51113;53.646;-113.674;2023-08-08T11:47:26;40.72;;;21.95;;
64686;SDS011;51113;53.646;-113.674;2023-08-08T11:49:59;36.33;;;22.17;;
64686;SDS011;51113;53.646;-113.674;2023-08-08T11:52:28;40.28;;;21.10;;
64686;SDS011;51113;53.646;-113.674;2023-08-08T11:54:58;38.17;;;21.58;;
64686;SDS011;51113;53.646;-113.674;2023-08-08T11:57:31;38.07;;;20.83;;
64686;SDS011;51113;53.646;-113.674;2023-08-08T12:00:00;38.40;;;21.13;;
64686;SDS011;51113;53.646;-113.674;2023-08-08T12:02:29;36.55;;;20.55;;
64686;SDS011;51113;53.646;-113.674;2023-08-08T12:05:08;40.53;;;21.90;;
64686;SDS011;51113;53.646;-113.674;2023-08-08T12:07:40;38.38;;;19.55;;
64686;SDS011;51113;53.646;-113.674;2023-08-08T12:10:19;40.65;;;21.05;;
64686;SDS011;51113;53.646;-113.674;2023-08-08T12:12:53;34.33;;;20.48;;
64686;SDS011;51113;53.646;-113.674;2023-08-08T12:15:34;38.13;;;21.70;;
64686;SDS011;51113;53.646;-113.674;2023-08-08T12:18:03;39.40;;;21.33;;
64686;SDS011;51113;53.646;-113.674;2023-08-08T12:20:32;40.28;;;20.52;;
64686;SDS011;51113;53.646;-113.674;2023-08-08T12:23:01;34.70;;;20.58;;
64686;SDS011;51113;53.646;-113.674;2023-08-08T12:25:30;38.25;;;20.23;;
64686;SDS011;51113;53.646;-113.674;2023-08-08T12:27:58;37.40;;;21.58;;
64686;SDS011;51113;53.646;-113.674;2023-08-08T12:30:27;41.17;;;21.77;;
64686;SDS011;51113;53.646;-113.674;2023-08-08T12:32:56;36.08;;;20.00;;
64686;SDS011;51113;53.646;-113.674;2023-08-08T12:35:24;35.22;;;20.70;;
64686;SDS011;51113;53.646;-113.674;2023-08-08T12:37:55;38.85;;;20.90;;
64686;SDS011;51113;53.646;-113.674;2023-08-08T12:40:23;39.78;;;21.83;;
64686;SDS011;51113;53.646;-113.674;2023-08-08T12:42:53;38.10;;;20.58;;
64686;SDS011;51113;53.646;-113.674;2023-08-08T12:45:22;34.83;;;20.50;;
64686;SDS011;51113;53.646;-113.674;2023-08-08T12:47:50;38.55;;;20.52;;
64686;SDS011;51113;53.646;-113.674;2023-08-08T12:50:19;36.30;;;20.90;;
64686;SDS011;51113;53.646;-113.674;2023-08-08T12:52:48;35.75;;;21.67;;
64686;SDS011;51113;53.646;-113.674;2023-08-08T12:55:16;34.95;;;20.27;;
64686;SDS011;51113;53.646;-113.674;2023-08-08T12:57:46;35.83;;;20.25;;
64686;SDS011;51113;53.646;-113.674;2023-08-08T13:00:15;35.70;;;20.58;;
64686;SDS011;51113;53.646;-113.674;2023-08-08T13:02:43;37.72;;;20.92;;
64686;SDS011;51113;53.646;-113.674;2023-08-08T13:05:12;35.72;;;20.75;;
64686;SDS011;51113;53.646;-113.674;2023-08-08T13:07:41;37.67;;;21.35;;
64686;SDS011;51113;53.646;-113.674;2023-08-08T13:10:10;33.45;;;20.92;;
64686;SDS011;51113;53.646;-113.674;2023-08-08T13:12:38;37.67;;;19.95;;
64686;SDS011;51113;53.646;-113.674;2023-08-08T13:15:07;34.90;;;20.27;;
64686;SDS011;51113;53.646;-113.674;2023-08-08T13:17:36;38.85;;;21.05;;
64686;SDS011;51113;53.646;-113.674;2023-08-08T13:20:05;33.65;;;20.55;;
64686;SDS011;51113;53.646;-113.674;2023-08-08T13:22:35;36.10;;;20.98;;
64686;SDS011;51113;53.646;-113.674;2023-08-08T13:25:04;36.58;;;20.48;;
64686;SDS011;51113;53.646;-113.674;2023-08-08T13:27:33;34.08;;;20.33;;
64686;SDS011;51113;53.646;-113.674;2023-08-08T13:30:02;33.83;;;19.58;;
64686;SDS011;51113;53.646;-113.674;2023-08-08T13:32:32;36.60;;;19.85;;
64686;SDS011;51113;53.646;-113.674;2023-08-08T13:35:01;36.13;;;20.60;;
64686;SDS011;51113;53.646;-113.674;2023-08-08T13:37:30;38.30;;;20.48;;
64686;SDS011;51113;53.646;-113.674;2023-08-08T13:39:59;39.90;;;19.17;;
64686;SDS011;51113;53.646;-113.674;2023-08-08T13:42:27;34.17;;;18.63;;
64686;SDS011;51113;53.646;-113.674;2023-08-08T13:44:56;35.40;;;18.58;;
64686;SDS011;51113;53.646;-113.674;2023-08-08T13:47:24;31.85;;;18.00;;
64686;SDS011;51113;53.646;-113.674;2023-08-08T13:49:53;35.35;;;18.42;;
64686;SDS011;51113;53.646;-113.674;2023-08-08T13:52:22;36.92;;;19.13;;
64686;SDS011;51113;53.646;-113.674;2023-08-08T13:54:50;38.83;;;18.00;;
64686;SDS011;51113;53.646;-113.674;2023-08-08T13:57:19;36.20;;;18.17;;
64686;SDS011;51113;53.646;-113.674;2023-08-08T13:59:51;31.23;;;19.20;;
64686;SDS011;51113;53.646;-113.674;2023-08-08T14:02:21;36.58;;;17.90;;
64686;SDS011;51113;53.646;-113.674;2023-08-08T14:04:49;39.00;;;18.05;;
64686;SDS011;51113;53.646;-113.674;2023-08-08T14:07:18;44.28;;;18.95;;
64686;SDS011;51113;53.646;-113.674;2023-08-08T14:09:47;32.88;;;17.90;;